sensor_id;sensor_type;location;lat;lon;timestamp;pressure;altitude;pressure_sealevel;temperature
45850;BMP180;10739;52.198;20.908;2023-03-11T00:00:34;97535.00;;;11.90
45850;BMP180;10739;52.198;20.908;2023-03-11T00:03:03;97551.00;;;11.90
45850;BMP180;10739;52.198;20.908;2023-03-11T00:05:33;97554.00;;;11.80
45850;BMP180;10739;52.198;20.908;2023-03-11T00:08:01;97541.00;;;11.90
45850;BMP180;10739;52.198;20.908;2023-03-11T00:10:38;97538.00;;;12.20
45850;BMP180;10739;52.198;20.908;2023-03-11T00:13:07;97538.00;;;12.00
45850;BMP180;10739;52.198;20.908;2023-03-11T00:15:36;97538.00;;;12.30
45850;BMP180;10739;52.198;20.908;2023-03-11T00:18:03;97533.00;;;12.00
45850;BMP180;10739;52.198;20.908;2023-03-11T00:20:33;97527.00;;;12.10
45850;BMP180;10739;52.198;20.908;2023-03-11T00:23:01;97537.00;;;12.40
45850;BMP180;10739;52.198;20.908;2023-03-11T00:25:30;97530.00;;;12.30
45850;BMP180;10739;52.198;20.908;2023-03-11T00:27:57;97536.00;;;12.10
45850;BMP180;10739;52.198;20.908;2023-03-11T00:30:25;97523.00;;;11.80
45850;BMP180;10739;52.198;20.908;2023-03-11T00:32:54;97529.00;;;11.80
45850;BMP180;10739;52.198;20.908;2023-03-11T00:35:25;97526.00;;;12.10
45850;BMP180;10739;52.198;20.908;2023-03-11T00:37:59;97525.00;;;11.80
45850;BMP180;10739;52.198;20.908;2023-03-11T00:40:29;97519.00;;;11.90
45850;BMP180;10739;52.198;20.908;2023-03-11T00:42:57;97516.00;;;12.00
45850;BMP180;10739;52.198;20.908;2023-03-11T00:45:25;97521.00;;;12.10
45850;BMP180;10739;52.198;20.908;2023-03-11T00:47:52;97509.00;;;12.10
45850;BMP180;10739;52.198;20.908;2023-03-11T00:50:23;97499.00;;;12.00
45850;BMP180;10739;52.198;20.908;2023-03-11T00:52:50;97511.00;;;11.50
45850;BMP180;10739;52.198;20.908;2023-03-11T00:55:21;97498.00;;;11.80
45850;BMP180;10739;52.198;20.908;2023-03-11T00:57:52;97493.00;;;11.80
45850;BMP180;10739;52.198;20.908;2023-03-11T01:00:20;97477.00;;;11.80
45850;BMP180;10739;52.198;20.908;2023-03-11T01:02:47;97488.00;;;11.90
45850;BMP180;10739;52.198;20.908;2023-03-11T01:05:13;97490.00;;;11.90
45850;BMP180;10739;52.198;20.908;2023-03-11T01:07:40;97486.00;;;12.00
45850;BMP180;10739;52.198;20.908;2023-03-11T01:10:09;97485.00;;;11.80
45850;BMP180;10739;52.198;20.908;2023-03-11T01:12:35;97493.00;;;11.60
45850;BMP180;10739;52.198;20.908;2023-03-11T01:15:04;97486.00;;;11.40
45850;BMP180;10739;52.198;20.908;2023-03-11T01:17:31;97484.00;;;11.80
45850;BMP180;10739;52.198;20.908;2023-03-11T01:19:57;97489.00;;;11.60
45850;BMP180;10739;52.198;20.908;2023-03-11T01:22:23;97483.00;;;11.60
45850;BMP180;10739;52.198;20.908;2023-03-11T01:24:50;97484.00;;;11.40
45850;BMP180;10739;52.198;20.908;2023-03-11T01:27:16;97491.00;;;11.30
45850;BMP180;10739;52.198;20.908;2023-03-11T01:29:42;97492.00;;;11.20
45850;BMP180;10739;52.198;20.908;2023-03-11T01:32:09;97489.00;;;11.20
45850;BMP180;10739;52.198;20.908;2023-03-11T01:34:36;97489.00;;;11.30
45850;BMP180;10739;52.198;20.908;2023-03-11T01:37:03;97481.00;;;11.20
45850;BMP180;10739;52.198;20.908;2023-03-11T01:39:29;97471.00;;;11.20
45850;BMP180;10739;52.198;20.908;2023-03-11T01:41:56;97472.00;;;11.20
45850;BMP180;10739;52.198;20.908;2023-03-11T01:44:22;97471.00;;;11.10
45850;BMP180;10739;52.198;20.908;2023-03-11T01:49:22;97479.00;;;10.70
45850;BMP180;10739;52.198;20.908;2023-03-11T01:51:52;97470.00;;;10.70
45850;BMP180;10739;52.198;20.908;2023-03-11T01:54:30;97469.00;;;10.70
45850;BMP180;10739;52.198;20.908;2023-03-11T01:57:01;97472.00;;;10.60
45850;BMP180;10739;52.198;20.908;2023-03-11T01:59:36;97462.00;;;10.80
45850;BMP180;10739;52.198;20.908;2023-03-11T02:04:49;97464.00;;;10.60
45850;BMP180;10739;52.198;20.908;2023-03-11T02:07:16;97459.00;;;10.40
45850;BMP180;10739;52.198;20.908;2023-03-11T02:09:43;97464.00;;;10.60
45850;BMP180;10739;52.198;20.908;2023-03-11T02:12:12;97471.00;;;10.70
45850;BMP180;10739;52.198;20.908;2023-03-11T02:14:44;97460.00;;;10.80
45850;BMP180;10739;52.198;20.908;2023-03-11T02:17:12;97457.00;;;10.50
45850;BMP180;10739;52.198;20.908;2023-03-11T02:22:32;97458.00;;;10.40
45850;BMP180;10739;52.198;20.908;2023-03-11T02:25:13;97454.00;;;10.60
45850;BMP180;10739;52.198;20.908;2023-03-11T02:27:44;97453.00;;;10.60
45850;BMP180;10739;52.198;20.908;2023-03-11T02:30:15;97454.00;;;10.60
45850;BMP180;10739;52.198;20.908;2023-03-11T02:32:45;97447.00;;;10.70
45850;BMP180;10739;52.198;20.908;2023-03-11T02:35:14;97437.00;;;10.40
45850;BMP180;10739;52.198;20.908;2023-03-11T02:37:51;97447.00;;;10.30
45850;BMP180;10739;52.198;20.908;2023-03-11T02:42:57;97447.00;;;9.80
45850;BMP180;10739;52.198;20.908;2023-03-11T02:45:29;97440.00;;;9.80
45850;BMP180;10739;52.198;20.908;2023-03-11T02:47:57;97443.00;;;10.30
45850;BMP180;10739;52.198;20.908;2023-03-11T02:50:25;97446.00;;;10.20
45850;BMP180;10739;52.198;20.908;2023-03-11T02:52:53;97446.00;;;10.00
45850;BMP180;10739;52.198;20.908;2023-03-11T02:55:20;97444.00;;;9.90
45850;BMP180;10739;52.198;20.908;2023-03-11T02:57:47;97443.00;;;10.00
45850;BMP180;10739;52.198;20.908;2023-03-11T03:00:16;97440.00;;;9.90
45850;BMP180;10739;52.198;20.908;2023-03-11T03:02:44;97447.00;;;10.10
45850;BMP180;10739;52.198;20.908;2023-03-11T03:05:12;97448.00;;;10.00
45850;BMP180;10739;52.198;20.908;2023-03-11T03:07:38;97443.00;;;10.00
45850;BMP180;10739;52.198;20.908;2023-03-11T03:10:06;97443.00;;;10.10
45850;BMP180;10739;52.198;20.908;2023-03-11T03:12:32;97435.00;;;10.10
45850;BMP180;10739;52.198;20.908;2023-03-11T03:14:58;97444.00;;;10.00
45850;BMP180;10739;52.198;20.908;2023-03-11T03:17:25;97438.00;;;10.00
45850;BMP180;10739;52.198;20.908;2023-03-11T03:19:51;97436.00;;;10.00
45850;BMP180;10739;52.198;20.908;2023-03-11T03:22:17;97430.00;;;10.00
45850;BMP180;10739;52.198;20.908;2023-03-11T03:24:44;97438.00;;;9.80
45850;BMP180;10739;52.198;20.908;2023-03-11T03:27:10;97446.00;;;9.90
45850;BMP180;10739;52.198;20.908;2023-03-11T03:29:36;97441.00;;;9.80
45850;BMP180;10739;52.198;20.908;2023-03-11T03:32:02;97441.00;;;10.00
45850;BMP180;10739;52.198;20.908;2023-03-11T03:34:28;97435.00;;;10.00
45850;BMP180;10739;52.198;20.908;2023-03-11T03:36:55;97435.00;;;10.10
45850;BMP180;10739;52.198;20.908;2023-03-11T03:39:21;97435.00;;;10.00
45850;BMP180;10739;52.198;20.908;2023-03-11T03:41:47;97424.00;;;10.00
45850;BMP180;10739;52.198;20.908;2023-03-11T03:44:14;97433.00;;;10.00
45850;BMP180;10739;52.198;20.908;2023-03-11T03:46:40;97431.00;;;9.90
45850;BMP180;10739;52.198;20.908;2023-03-11T03:49:06;97433.00;;;10.10
45850;BMP180;10739;52.198;20.908;2023-03-11T03:51:33;97437.00;;;10.00
45850;BMP180;10739;52.198;20.908;2023-03-11T03:53:59;97435.00;;;9.90
45850;BMP180;10739;52.198;20.908;2023-03-11T03:56:25;97427.00;;;10.10
45850;BMP180;10739;52.198;20.908;2023-03-11T03:58:53;97424.00;;;10.30
45850;BMP180;10739;52.198;20.908;2023-03-11T04:01:20;97422.00;;;10.10
45850;BMP180;10739;52.198;20.908;2023-03-11T04:03:46;97410.00;;;10.40
45850;BMP180;10739;52.198;20.908;2023-03-11T04:06:21;97404.00;;;10.50
45850;BMP180;10739;52.198;20.908;2023-03-11T04:08:49;97401.00;;;10.50
45850;BMP180;10739;52.198;20.908;2023-03-11T04:11:16;97409.00;;;10.20
45850;BMP180;10739;52.198;20.908;2023-03-11T04:13:43;97418.00;;;10.20
45850;BMP180;10739;52.198;20.908;2023-03-11T04:16:21;97417.00;;;10.50
45850;BMP180;10739;52.198;20.908;2023-03-11T04:18:48;97407.00;;;10.70
45850;BMP180;10739;52.198;20.908;2023-03-11T04:21:14;97406.00;;;10.50
45850;BMP180;10739;52.198;20.908;2023-03-11T04:23:41;97402.00;;;10.50
45850;BMP180;10739;52.198;20.908;2023-03-11T04:26:07;97399.00;;;10.30
45850;BMP180;10739;52.198;20.908;2023-03-11T04:28:33;97408.00;;;10.50
45850;BMP180;10739;52.198;20.908;2023-03-11T04:31:00;97396.00;;;10.60
45850;BMP180;10739;52.198;20.908;2023-03-11T04:33:26;97398.00;;;10.80
45850;BMP180;10739;52.198;20.908;2023-03-11T04:35:52;97393.00;;;10.70
45850;BMP180;10739;52.198;20.908;2023-03-11T04:38:19;97402.00;;;10.60
45850;BMP180;10739;52.198;20.908;2023-03-11T04:40:45;97401.00;;;10.50
45850;BMP180;10739;52.198;20.908;2023-03-11T04:43:11;97405.00;;;10.60
45850;BMP180;10739;52.198;20.908;2023-03-11T04:45:39;97404.00;;;10.60
45850;BMP180;10739;52.198;20.908;2023-03-11T04:48:06;97410.00;;;10.60
45850;BMP180;10739;52.198;20.908;2023-03-11T04:50:32;97399.00;;;10.50
45850;BMP180;10739;52.198;20.908;2023-03-11T04:52:59;97403.00;;;10.60
45850;BMP180;10739;52.198;20.908;2023-03-11T04:55:25;97407.00;;;10.70
45850;BMP180;10739;52.198;20.908;2023-03-11T04:57:52;97411.00;;;10.50
45850;BMP180;10739;52.198;20.908;2023-03-11T05:00:18;97411.00;;;10.40
45850;BMP180;10739;52.198;20.908;2023-03-11T05:02:50;97409.00;;;10.30
45850;BMP180;10739;52.198;20.908;2023-03-11T05:05:16;97412.00;;;10.40
45850;BMP180;10739;52.198;20.908;2023-03-11T05:07:44;97411.00;;;10.30
45850;BMP180;10739;52.198;20.908;2023-03-11T05:10:11;97404.00;;;10.50
45850;BMP180;10739;52.198;20.908;2023-03-11T05:12:38;97409.00;;;10.50
45850;BMP180;10739;52.198;20.908;2023-03-11T05:15:04;97416.00;;;10.40
45850;BMP180;10739;52.198;20.908;2023-03-11T05:17:31;97413.00;;;10.30
45850;BMP180;10739;52.198;20.908;2023-03-11T05:19:57;97409.00;;;10.30
45850;BMP180;10739;52.198;20.908;2023-03-11T05:22:24;97410.00;;;10.50
45850;BMP180;10739;52.198;20.908;2023-03-11T05:24:50;97412.00;;;10.50
45850;BMP180;10739;52.198;20.908;2023-03-11T05:27:16;97410.00;;;10.50
45850;BMP180;10739;52.198;20.908;2023-03-11T05:29:43;97409.00;;;10.50
45850;BMP180;10739;52.198;20.908;2023-03-11T05:32:12;97415.00;;;10.20
45850;BMP180;10739;52.198;20.908;2023-03-11T05:34:38;97412.00;;;10.40
45850;BMP180;10739;52.198;20.908;2023-03-11T05:37:05;97405.00;;;10.50
45850;BMP180;10739;52.198;20.908;2023-03-11T05:39:32;97411.00;;;10.60
45850;BMP180;10739;52.198;20.908;2023-03-11T05:41:58;97421.00;;;10.60
45850;BMP180;10739;52.198;20.908;2023-03-11T05:44:25;97417.00;;;10.60
45850;BMP180;10739;52.198;20.908;2023-03-11T05:46:51;97407.00;;;10.30
45850;BMP180;10739;52.198;20.908;2023-03-11T05:49:17;97409.00;;;10.10
45850;BMP180;10739;52.198;20.908;2023-03-11T05:51:46;97407.00;;;10.50
45850;BMP180;10739;52.198;20.908;2023-03-11T05:54:13;97407.00;;;10.40
45850;BMP180;10739;52.198;20.908;2023-03-11T05:56:46;97403.00;;;10.50
45850;BMP180;10739;52.198;20.908;2023-03-11T05:59:14;97403.00;;;10.20
45850;BMP180;10739;52.198;20.908;2023-03-11T06:01:42;97405.00;;;10.40
45850;BMP180;10739;52.198;20.908;2023-03-11T06:04:09;97411.00;;;10.40
45850;BMP180;10739;52.198;20.908;2023-03-11T06:06:38;97406.00;;;10.80
45850;BMP180;10739;52.198;20.908;2023-03-11T06:09:11;97400.00;;;10.40
45850;BMP180;10739;52.198;20.908;2023-03-11T06:11:37;97416.00;;;10.40
45850;BMP180;10739;52.198;20.908;2023-03-11T06:14:03;97418.00;;;10.50
45850;BMP180;10739;52.198;20.908;2023-03-11T06:16:30;97418.00;;;10.10
45850;BMP180;10739;52.198;20.908;2023-03-11T06:18:56;97419.00;;;10.30
45850;BMP180;10739;52.198;20.908;2023-03-11T06:21:25;97422.00;;;10.10
45850;BMP180;10739;52.198;20.908;2023-03-11T06:23:52;97422.00;;;10.40
45850;BMP180;10739;52.198;20.908;2023-03-11T06:26:20;97437.00;;;10.60
45850;BMP180;10739;52.198;20.908;2023-03-11T06:28:51;97442.00;;;10.50
45850;BMP180;10739;52.198;20.908;2023-03-11T06:31:23;97436.00;;;10.90
45850;BMP180;10739;52.198;20.908;2023-03-11T06:33:50;97430.00;;;10.90
45850;BMP180;10739;52.198;20.908;2023-03-11T06:36:19;97438.00;;;10.80
45850;BMP180;10739;52.198;20.908;2023-03-11T06:38:46;97433.00;;;10.50
45850;BMP180;10739;52.198;20.908;2023-03-11T06:41:13;97438.00;;;10.90
45850;BMP180;10739;52.198;20.908;2023-03-11T06:43:39;97443.00;;;11.50
45850;BMP180;10739;52.198;20.908;2023-03-11T06:46:11;97445.00;;;11.00
45850;BMP180;10739;52.198;20.908;2023-03-11T06:48:38;97447.00;;;10.70
45850;BMP180;10739;52.198;20.908;2023-03-11T06:51:04;97449.00;;;10.80
45850;BMP180;10739;52.198;20.908;2023-03-11T06:53:32;97444.00;;;10.70
45850;BMP180;10739;52.198;20.908;2023-03-11T06:56:08;97447.00;;;11.20
45850;BMP180;10739;52.198;20.908;2023-03-11T06:58:36;97444.00;;;11.30
45850;BMP180;10739;52.198;20.908;2023-03-11T07:01:11;97444.00;;;11.30
45850;BMP180;10739;52.198;20.908;2023-03-11T07:03:38;97445.00;;;11.70
45850;BMP180;10739;52.198;20.908;2023-03-11T07:06:05;97458.00;;;11.60
45850;BMP180;10739;52.198;20.908;2023-03-11T07:08:32;97459.00;;;11.30
45850;BMP180;10739;52.198;20.908;2023-03-11T07:11:24;97459.00;;;11.50
45850;BMP180;10739;52.198;20.908;2023-03-11T07:13:52;97462.00;;;11.50
45850;BMP180;10739;52.198;20.908;2023-03-11T07:16:23;97466.00;;;11.40
45850;BMP180;10739;52.198;20.908;2023-03-11T07:18:53;97460.00;;;11.10
45850;BMP180;10739;52.198;20.908;2023-03-11T07:21:22;97467.00;;;10.90
45850;BMP180;10739;52.198;20.908;2023-03-11T07:23:53;97470.00;;;11.10
45850;BMP180;10739;52.198;20.908;2023-03-11T07:26:20;97476.00;;;11.00
45850;BMP180;10739;52.198;20.908;2023-03-11T07:28:46;97478.00;;;11.30
45850;BMP180;10739;52.198;20.908;2023-03-11T07:31:19;97479.00;;;11.30
45850;BMP180;10739;52.198;20.908;2023-03-11T07:33:46;97478.00;;;11.10
45850;BMP180;10739;52.198;20.908;2023-03-11T07:36:16;97478.00;;;11.20
45850;BMP180;10739;52.198;20.908;2023-03-11T07:38:44;97484.00;;;11.30
45850;BMP180;10739;52.198;20.908;2023-03-11T07:41:12;97478.00;;;11.10
45850;BMP180;10739;52.198;20.908;2023-03-11T07:43:40;97477.00;;;11.20
45850;BMP180;10739;52.198;20.908;2023-03-11T07:46:13;97483.00;;;10.80
45850;BMP180;10739;52.198;20.908;2023-03-11T07:48:44;97497.00;;;10.90
45850;BMP180;10739;52.198;20.908;2023-03-11T07:51:15;97484.00;;;10.90
45850;BMP180;10739;52.198;20.908;2023-03-11T07:53:42;97488.00;;;10.90
45850;BMP180;10739;52.198;20.908;2023-03-11T07:56:11;97494.00;;;11.00
45850;BMP180;10739;52.198;20.908;2023-03-11T07:58:39;97504.00;;;10.30
45850;BMP180;10739;52.198;20.908;2023-03-11T08:01:13;97505.00;;;10.40
45850;BMP180;10739;52.198;20.908;2023-03-11T08:03:50;97511.00;;;10.30
45850;BMP180;10739;52.198;20.908;2023-03-11T08:06:20;97504.00;;;10.20
45850;BMP180;10739;52.198;20.908;2023-03-11T08:08:48;97511.00;;;10.30
45850;BMP180;10739;52.198;20.908;2023-03-11T08:11:17;97496.00;;;10.60
45850;BMP180;10739;52.198;20.908;2023-03-11T08:13:46;97497.00;;;10.20
45850;BMP180;10739;52.198;20.908;2023-03-11T08:16:15;97494.00;;;10.70
45850;BMP180;10739;52.198;20.908;2023-03-11T08:18:43;97505.00;;;10.90
45850;BMP180;10739;52.198;20.908;2023-03-11T08:21:17;97505.00;;;10.80
45850;BMP180;10739;52.198;20.908;2023-03-11T08:23:44;97517.00;;;10.80
45850;BMP180;10739;52.198;20.908;2023-03-11T08:26:17;97515.00;;;10.10
45850;BMP180;10739;52.198;20.908;2023-03-11T08:28:44;97519.00;;;10.50
45850;BMP180;10739;52.198;20.908;2023-03-11T08:31:20;97531.00;;;10.50
45850;BMP180;10739;52.198;20.908;2023-03-11T08:33:51;97522.00;;;10.10
45850;BMP180;10739;52.198;20.908;2023-03-11T08:36:19;97534.00;;;9.80
45850;BMP180;10739;52.198;20.908;2023-03-11T08:38:46;97538.00;;;10.20
45850;BMP180;10739;52.198;20.908;2023-03-11T08:41:13;97543.00;;;10.10
45850;BMP180;10739;52.198;20.908;2023-03-11T08:43:40;97540.00;;;10.00
45850;BMP180;10739;52.198;20.908;2023-03-11T08:46:07;97550.00;;;10.40
45850;BMP180;10739;52.198;20.908;2023-03-11T08:48:36;97546.00;;;9.60
45850;BMP180;10739;52.198;20.908;2023-03-11T08:51:12;97555.00;;;10.10
45850;BMP180;10739;52.198;20.908;2023-03-11T08:53:39;97560.00;;;9.80
45850;BMP180;10739;52.198;20.908;2023-03-11T08:56:07;97554.00;;;10.10
45850;BMP180;10739;52.198;20.908;2023-03-11T08:58:33;97563.00;;;10.00
45850;BMP180;10739;52.198;20.908;2023-03-11T09:01:00;97563.00;;;10.30
45850;BMP180;10739;52.198;20.908;2023-03-11T09:03:30;97564.00;;;9.60
45850;BMP180;10739;52.198;20.908;2023-03-11T09:06:03;97578.00;;;10.00
45850;BMP180;10739;52.198;20.908;2023-03-11T09:08:30;97582.00;;;9.70
45850;BMP180;10739;52.198;20.908;2023-03-11T09:10:56;97585.00;;;10.10
45850;BMP180;10739;52.198;20.908;2023-03-11T09:13:23;97587.00;;;9.50
45850;BMP180;10739;52.198;20.908;2023-03-11T09:15:50;97582.00;;;9.60
45850;BMP180;10739;52.198;20.908;2023-03-11T09:18:17;97594.00;;;9.50
45850;BMP180;10739;52.198;20.908;2023-03-11T09:20:44;97595.00;;;9.80
45850;BMP180;10739;52.198;20.908;2023-03-11T09:23:14;97593.00;;;9.60
45850;BMP180;10739;52.198;20.908;2023-03-11T09:25:40;97602.00;;;9.60
45850;BMP180;10739;52.198;20.908;2023-03-11T09:28:07;97606.00;;;9.50
45850;BMP180;10739;52.198;20.908;2023-03-11T09:30:33;97611.00;;;9.70
45850;BMP180;10739;52.198;20.908;2023-03-11T09:33:01;97620.00;;;9.80
45850;BMP180;10739;52.198;20.908;2023-03-11T09:35:28;97624.00;;;10.00
45850;BMP180;10739;52.198;20.908;2023-03-11T09:37:54;97639.00;;;9.50
45850;BMP180;10739;52.198;20.908;2023-03-11T09:40:24;97641.00;;;9.20
45850;BMP180;10739;52.198;20.908;2023-03-11T09:45:49;97660.00;;;8.50
45850;BMP180;10739;52.198;20.908;2023-03-11T09:48:43;97664.00;;;8.30
45850;BMP180;10739;52.198;20.908;2023-03-11T09:51:24;97674.00;;;8.60
45850;BMP180;10739;52.198;20.908;2023-03-11T09:54:03;97691.00;;;8.30
45850;BMP180;10739;52.198;20.908;2023-03-11T09:56:33;97688.00;;;7.70
45850;BMP180;10739;52.198;20.908;2023-03-11T09:59:33;97690.00;;;7.90
45850;BMP180;10739;52.198;20.908;2023-03-11T10:02:05;97706.00;;;7.50
45850;BMP180;10739;52.198;20.908;2023-03-11T10:04:55;97707.00;;;7.20
45850;BMP180;10739;52.198;20.908;2023-03-11T10:07:30;97717.00;;;7.20
45850;BMP180;10739;52.198;20.908;2023-03-11T10:09:58;97713.00;;;7.00
45850;BMP180;10739;52.198;20.908;2023-03-11T10:13:03;97727.00;;;7.00
45850;BMP180;10739;52.198;20.908;2023-03-11T10:19:03;97739.00;;;7.00
45850;BMP180;10739;52.198;20.908;2023-03-11T10:22:13;97734.00;;;7.60
45850;BMP180;10739;52.198;20.908;2023-03-11T10:24:49;97747.00;;;6.80
45850;BMP180;10739;52.198;20.908;2023-03-11T10:33:16;97776.00;;;7.00
45850;BMP180;10739;52.198;20.908;2023-03-11T10:35:52;97773.00;;;6.80
45850;BMP180;10739;52.198;20.908;2023-03-11T10:38:25;97798.00;;;6.40
45850;BMP180;10739;52.198;20.908;2023-03-11T10:40:59;97799.00;;;6.30
45850;BMP180;10739;52.198;20.908;2023-03-11T10:43:35;97798.00;;;5.90
45850;BMP180;10739;52.198;20.908;2023-03-11T10:46:17;97810.00;;;6.00
45850;BMP180;10739;52.198;20.908;2023-03-11T10:48:44;97820.00;;;5.90
45850;BMP180;10739;52.198;20.908;2023-03-11T10:51:22;97833.00;;;5.70
45850;BMP180;10739;52.198;20.908;2023-03-11T10:53:56;97837.00;;;5.70
45850;BMP180;10739;52.198;20.908;2023-03-11T10:56:39;97837.00;;;5.80
45850;BMP180;10739;52.198;20.908;2023-03-11T10:59:45;97841.00;;;5.60
45850;BMP180;10739;52.198;20.908;2023-03-11T11:02:28;97849.00;;;5.60
45850;BMP180;10739;52.198;20.908;2023-03-11T11:08:06;97865.00;;;5.20
45850;BMP180;10739;52.198;20.908;2023-03-11T11:10:31;97865.00;;;5.50
45850;BMP180;10739;52.198;20.908;2023-03-11T11:13:14;97872.00;;;5.70
45850;BMP180;10739;52.198;20.908;2023-03-11T11:16:03;97887.00;;;5.20
45850;BMP180;10739;52.198;20.908;2023-03-11T11:18:35;97890.00;;;5.00
45850;BMP180;10739;52.198;20.908;2023-03-11T11:24:28;97910.00;;;5.30
45850;BMP180;10739;52.198;20.908;2023-03-11T11:27:17;97919.00;;;4.90
45850;BMP180;10739;52.198;20.908;2023-03-11T11:29:46;97922.00;;;5.20
45850;BMP180;10739;52.198;20.908;2023-03-11T11:32:25;97914.00;;;5.10
45850;BMP180;10739;52.198;20.908;2023-03-11T11:35:05;97924.00;;;5.10
45850;BMP180;10739;52.198;20.908;2023-03-11T11:37:37;97933.00;;;5.40
45850;BMP180;10739;52.198;20.908;2023-03-11T11:40:16;97946.00;;;5.60
45850;BMP180;10739;52.198;20.908;2023-03-11T11:43:12;97940.00;;;5.50
45850;BMP180;10739;52.198;20.908;2023-03-11T11:45:45;97965.00;;;5.30
45850;BMP180;10739;52.198;20.908;2023-03-11T11:51:29;97978.00;;;5.40
45850;BMP180;10739;52.198;20.908;2023-03-11T11:54:24;97975.00;;;5.10
45850;BMP180;10739;52.198;20.908;2023-03-11T11:56:54;97993.00;;;5.50
45850;BMP180;10739;52.198;20.908;2023-03-11T11:59:22;97991.00;;;5.20
45850;BMP180;10739;52.198;20.908;2023-03-11T12:02:02;98000.00;;;5.50
45850;BMP180;10739;52.198;20.908;2023-03-11T12:10:40;98033.00;;;4.80
45850;BMP180;10739;52.198;20.908;2023-03-11T12:17:01;98049.00;;;4.60
45850;BMP180;10739;52.198;20.908;2023-03-11T12:19:20;98073.00;;;4.30
45850;BMP180;10739;52.198;20.908;2023-03-11T12:27:29;98077.00;;;4.70
45850;BMP180;10739;52.198;20.908;2023-03-11T12:30:09;98088.00;;;4.90
45850;BMP180;10739;52.198;20.908;2023-03-11T12:32:52;98086.00;;;4.80
45850;BMP180;10739;52.198;20.908;2023-03-11T12:35:28;98102.00;;;5.20
45850;BMP180;10739;52.198;20.908;2023-03-11T12:38:18;98122.00;;;4.70
45850;BMP180;10739;52.198;20.908;2023-03-11T12:42:13;98121.00;;;4.50
45850;BMP180;10739;52.198;20.908;2023-03-11T12:46:16;98128.00;;;4.50
45850;BMP180;10739;52.198;20.908;2023-03-11T12:49:11;98132.00;;;4.80
45850;BMP180;10739;52.198;20.908;2023-03-11T12:51:39;98150.00;;;4.60
45850;BMP180;10739;52.198;20.908;2023-03-11T12:54:35;98166.00;;;4.30
45850;BMP180;10739;52.198;20.908;2023-03-11T12:57:30;98168.00;;;4.40
45850;BMP180;10739;52.198;20.908;2023-03-11T13:00:52;98181.00;;;4.50
45850;BMP180;10739;52.198;20.908;2023-03-11T13:08:46;98195.00;;;4.30
45850;BMP180;10739;52.198;20.908;2023-03-11T13:16:41;98212.00;;;3.80
45850;BMP180;10739;52.198;20.908;2023-03-11T13:19:46;98227.00;;;4.10
45850;BMP180;10739;52.198;20.908;2023-03-11T13:22:42;98237.00;;;3.80
45850;BMP180;10739;52.198;20.908;2023-03-11T13:25:35;98252.00;;;3.90
45850;BMP180;10739;52.198;20.908;2023-03-11T13:34:09;98266.00;;;3.50
45850;BMP180;10739;52.198;20.908;2023-03-11T13:41:55;98298.00;;;3.40
45850;BMP180;10739;52.198;20.908;2023-03-11T13:44:32;98291.00;;;3.40
45850;BMP180;10739;52.198;20.908;2023-03-11T13:47:13;98315.00;;;3.50
45850;BMP180;10739;52.198;20.908;2023-03-11T13:50:05;98321.00;;;3.60
45850;BMP180;10739;52.198;20.908;2023-03-11T13:52:56;98319.00;;;3.50
45850;BMP180;10739;52.198;20.908;2023-03-11T13:55:43;98331.00;;;3.90
45850;BMP180;10739;52.198;20.908;2023-03-11T13:58:19;98337.00;;;3.60
45850;BMP180;10739;52.198;20.908;2023-03-11T14:00:54;98336.00;;;3.90
45850;BMP180;10739;52.198;20.908;2023-03-11T14:03:22;98344.00;;;3.90
45850;BMP180;10739;52.198;20.908;2023-03-11T14:06:17;98341.00;;;3.40
45850;BMP180;10739;52.198;20.908;2023-03-11T14:09:04;98360.00;;;3.20
45850;BMP180;10739;52.198;20.908;2023-03-11T14:11:54;98364.00;;;3.50
45850;BMP180;10739;52.198;20.908;2023-03-11T14:14:57;98371.00;;;4.00
45850;BMP180;10739;52.198;20.908;2023-03-11T14:17:45;98387.00;;;3.70
45850;BMP180;10739;52.198;20.908;2023-03-11T14:20:31;98382.00;;;3.20
45850;BMP180;10739;52.198;20.908;2023-03-11T14:23:19;98386.00;;;3.60
45850;BMP180;10739;52.198;20.908;2023-03-11T14:29:15;98414.00;;;3.30
45850;BMP180;10739;52.198;20.908;2023-03-11T14:32:27;98426.00;;;3.40
45850;BMP180;10739;52.198;20.908;2023-03-11T14:35:19;98427.00;;;3.30
45850;BMP180;10739;52.198;20.908;2023-03-11T14:38:25;98429.00;;;3.80
45850;BMP180;10739;52.198;20.908;2023-03-11T14:41:14;98450.00;;;3.60
45850;BMP180;10739;52.198;20.908;2023-03-11T14:44:10;98450.00;;;3.30
45850;BMP180;10739;52.198;20.908;2023-03-11T14:50:20;98458.00;;;3.90
45850;BMP180;10739;52.198;20.908;2023-03-11T14:53:22;98472.00;;;4.00
45850;BMP180;10739;52.198;20.908;2023-03-11T14:56:20;98473.00;;;3.90
45850;BMP180;10739;52.198;20.908;2023-03-11T14:59:27;98473.00;;;3.70
45850;BMP180;10739;52.198;20.908;2023-03-11T15:03:34;98494.00;;;3.90
45850;BMP180;10739;52.198;20.908;2023-03-11T15:06:17;98493.00;;;3.90
45850;BMP180;10739;52.198;20.908;2023-03-11T15:09:18;98505.00;;;4.20
45850;BMP180;10739;52.198;20.908;2023-03-11T15:12:05;98520.00;;;3.90
45850;BMP180;10739;52.198;20.908;2023-03-11T15:14:51;98517.00;;;4.20
45850;BMP180;10739;52.198;20.908;2023-03-11T15:17:38;98516.00;;;3.40
45850;BMP180;10739;52.198;20.908;2023-03-11T15:20:31;98529.00;;;3.90
45850;BMP180;10739;52.198;20.908;2023-03-11T15:23:21;98539.00;;;4.20
45850;BMP180;10739;52.198;20.908;2023-03-11T15:25:49;98535.00;;;4.10
45850;BMP180;10739;52.198;20.908;2023-03-11T15:28:31;98558.00;;;4.00
45850;BMP180;10739;52.198;20.908;2023-03-11T15:31:28;98567.00;;;4.00
45850;BMP180;10739;52.198;20.908;2023-03-11T15:44:29;98578.00;;;4.10
45850;BMP180;10739;52.198;20.908;2023-03-11T15:46:55;98582.00;;;4.10
45850;BMP180;10739;52.198;20.908;2023-03-11T15:49:24;98589.00;;;4.00
45850;BMP180;10739;52.198;20.908;2023-03-11T15:51:51;98590.00;;;4.10
45850;BMP180;10739;52.198;20.908;2023-03-11T15:54:17;98606.00;;;3.90
45850;BMP180;10739;52.198;20.908;2023-03-11T15:56:44;98604.00;;;4.40
45850;BMP180;10739;52.198;20.908;2023-03-11T15:59:16;98615.00;;;4.20
45850;BMP180;10739;52.198;20.908;2023-03-11T16:01:43;98615.00;;;4.00
45850;BMP180;10739;52.198;20.908;2023-03-11T16:04:17;98630.00;;;4.10